Time;durP1;ratioP1;P1;durP2;ratioP2;P2;SDS_P1;SDS_P2;PMS_P1;PMS_P2;Temp;Humidity;BMP_temperature;BMP_pressure;BME280_temperature;BME280_humidity;BME280_pressure;Samples;Min_cycle;Max_cycle;Signal;HPM_P1;HPM_P2
2023/01/11 00:02:24;;;;;;;5.00;1.40;;;;;;;4.60;100.00;93873.69;5053503;28;20200;-58
2023/01/11 00:04:50;;;;;;;4.37;2.03;;;;;;;4.54;100.00;93848.97;5053667;28;20217;-56
2023/01/11 00:07:15;;;;;;;2.47;1.93;;;;;;;4.55;100.00;93861.44;5053508;28;20716;-55
2023/01/11 00:09:40;;;;;;;2.20;1.43;;;;;;;4.50;100.00;93886.16;5053326;28;20217;-56
2023/01/11 00:12:07;;;;;;;3.17;1.97;;;;;;;4.44;100.00;93895.84;5053631;28;20221;-54
2023/01/11 00:14:32;;;;;;;3.47;1.63;;;;;;;4.44;100.00;93908.44;5035177;28;20277;-56
2023/01/11 00:16:58;;;;;;;5.57;1.80;;;;;;;4.66;100.00;93928.59;5053472;28;20271;-55
2023/01/11 00:19:24;;;;;;;2.20;1.50;;;;;;;4.65;100.00;93932.81;5053138;28;20213;-55
2023/01/11 00:21:49;;;;;;;5.30;2.63;;;;;;;4.62;100.00;93938.09;5053307;28;20355;-55
2023/01/11 00:24:14;;;;;;;6.17;2.53;;;;;;;4.43;100.00;93900.06;5035381;28;20217;-54
2023/01/11 00:26:40;;;;;;;4.23;2.57;;;;;;;4.24;100.00;93888.03;5053261;28;20227;-57
2023/01/11 00:29:05;;;;;;;5.47;2.67;;;;;;;4.07;100.00;93875.06;5053014;28;20250;-53
2023/01/11 00:31:31;;;;;;;4.00;3.30;;;;;;;4.07;100.00;93865.81;5053179;28;20254;-54
2023/01/11 00:33:56;;;;;;;7.53;3.20;;;;;;;3.99;100.00;93862.25;5052890;28;20267;-56
2023/01/11 00:36:22;;;;;;;6.10;3.93;;;;;;;4.07;100.00;93877.59;5053065;28;20197;-53
2023/01/11 00:38:52;;;;;;;5.57;3.67;;;;;;;3.97;100.00;93856.53;5052860;28;20582;-57
2023/01/11 00:49:34;;;;;;;8.00;4.43;;;;;;;4.06;100.00;93883.53;5053246;28;20732;-56
2023/01/11 00:52:00;;;;;;;9.43;5.40;;;;;;;4.01;100.00;93873.00;5052933;28;20195;-53
2023/01/11 00:54:26;;;;;;;8.63;5.27;;;;;;;4.12;100.00;93908.25;5052681;28;20271;-54
2023/01/11 00:56:51;;;;;;;9.73;4.87;;;;;;;4.02;100.00;93887.97;5052691;28;20188;-57
2023/01/11 00:59:17;;;;;;;9.77;5.27;;;;;;;4.04;100.00;93891.19;5052631;28;20602;-56
2023/01/11 01:01:42;;;;;;;8.60;5.13;;;;;;;4.00;100.00;93886.50;5052670;28;20198;-54
2023/01/11 01:04:08;;;;;;;6.50;4.43;;;;;;;3.95;100.00;93893.56;5052357;28;20194;-54
2023/01/11 01:06:33;;;;;;;8.63;4.50;;;;;;;3.76;100.00;93873.94;5052734;28;20220;-54
2023/01/11 01:08:59;;;;;;;7.67;4.70;;;;;;;3.78;100.00;93881.38;5052530;28;20298;-54
2023/01/11 01:11:25;;;;;;;7.03;4.43;;;;;;;3.57;100.00;93880.38;5052631;28;20799;-53
2023/01/11 01:16:35;;;;;;;5.37;3.87;;;;;;;3.43;100.00;93864.56;5052865;28;20228;-56
2023/01/11 01:19:01;;;;;;;5.57;3.60;;;;;;;3.65;100.00;93880.66;5052373;28;20215;-56
2023/01/11 01:21:26;;;;;;;4.83;3.13;;;;;;;3.61;100.00;93891.81;5034508;28;20198;-57
2023/01/11 01:23:56;;;;;;;4.50;3.20;;;;;;;3.59;100.00;93891.13;5052406;28;20197;-56
2023/01/11 01:26:22;;;;;;;5.43;3.33;;;;;;;3.35;100.00;93856.75;5051208;28;20189;-54
2023/01/11 01:28:49;;;;;;;5.20;2.60;;;;;;;3.35;100.00;93884.38;5052415;28;20659;-54
2023/01/11 01:31:15;;;;;;;4.23;2.73;;;;;;;3.23;100.00;93871.88;5052428;28;20223;-53
2023/01/11 01:33:41;;;;;;;4.20;3.00;;;;;;;3.17;100.00;93859.75;5052105;28;20189;-55
2023/01/11 01:36:06;;;;;;;3.77;2.63;;;;;;;3.32;100.00;93874.56;5064732;22;20237;-54
2023/01/11 01:38:32;;;;;;;3.77;2.67;;;;;;;3.49;100.00;93906.06;5051820;28;20312;-53
2023/01/11 01:40:57;;;;;;;5.27;3.10;;;;;;;3.42;100.00;93913.19;5051982;28;20346;-56
2023/01/11 01:43:45;;;;;;;4.37;3.30;;;;;;;3.36;100.00;93916.13;5052161;28;20181;-55
2023/01/11 01:46:10;;;;;;;4.13;2.80;;;;;;;3.13;100.00;93906.06;5052312;28;20307;-56
2023/01/11 01:48:37;;;;;;;4.60;2.60;;;;;;;3.09;100.00;93892.13;5051923;28;20277;-56
2023/01/11 01:51:05;;;;;;;5.37;3.13;;;;;;;2.97;100.00;93886.19;5052264;28;20206;-56
2023/01/11 01:53:42;;;;;;;4.70;3.10;;;;;;;3.16;100.00;93901.63;5051757;28;20633;-55
2023/01/11 01:56:13;;;;;;;3.10;2.40;;;;;;;3.21;100.00;93904.63;5052047;28;20213;-53
2023/01/11 01:58:45;;;;;;;3.13;2.37;;;;;;;3.30;100.00;93905.69;5051857;28;20803;-56
2023/01/11 02:04:04;;;;;;;3.63;2.87;;;;;;;3.31;100.00;93913.13;5051802;28;20207;-53
2023/01/11 02:06:30;;;;;;;4.63;2.27;;;;;;;3.31;100.00;93918.16;5051715;28;20190;-53
2023/01/11 02:09:01;;;;;;;3.20;2.30;;;;;;;3.40;100.00;93924.25;5051591;28;20227;-55
2023/01/11 02:11:30;;;;;;;4.73;2.33;;;;;;;3.48;100.00;93946.31;5051699;28;20270;-55
2023/01/11 02:13:58;;;;;;;3.77;2.00;;;;;;;3.57;100.00;93955.75;5051273;28;20178;-53
2023/01/11 02:16:23;;;;;;;2.83;2.23;;;;;;;3.53;100.00;93969.44;5051549;28;20224;-55
2023/01/11 02:18:49;;;;;;;3.53;2.63;;;;;;;3.31;100.00;93955.81;5051571;28;20231;-54
2023/01/11 02:21:15;;;;;;;3.13;2.50;;;;;;;3.27;100.00;93946.09;5051359;28;20209;-56
2023/01/11 02:23:43;;;;;;;3.40;2.40;;;;;;;3.23;100.00;93940.47;5051778;28;20176;-53
2023/01/11 02:26:45;;;;;;;4.97;2.30;;;;;;;3.20;100.00;93930.66;5051515;28;20210;-56
2023/01/11 02:29:29;;;;;;;3.50;2.53;;;;;;;3.27;100.00;93949.41;5051576;28;20567;-53
2023/01/11 02:31:55;;;;;;;5.20;3.00;;;;;;;3.27;100.00;93948.63;5051445;28;20192;-55
2023/01/11 02:34:36;;;;;;;5.37;2.60;;;;;;;3.39;100.00;93963.63;5051191;28;20297;-55
2023/01/11 02:37:20;;;;;;;3.40;2.03;;;;;;;3.47;100.00;93962.31;5051301;28;20242;-56
2023/01/11 02:39:54;;;;;;;3.20;2.50;;;;;;;3.48;100.00;93956.38;5051488;28;20216;-55
2023/01/11 02:45:37;;;;;;;3.40;2.17;;;;;;;3.72;100.00;93999.91;5051368;28;20237;-58
2023/01/11 02:48:41;;;;;;;3.40;2.30;;;;;;;3.59;100.00;93994.13;5051259;28;20712;-53
2023/01/11 02:51:39;;;;;;;3.10;2.10;;;;;;;3.60;100.00;93999.06;5021516;28;20225;-53
2023/01/11 02:54:08;;;;;;;2.17;1.90;;;;;;;3.69;100.00;94005.97;5050453;28;20238;-57
2023/01/11 02:56:41;;;;;;;4.00;2.03;;;;;;;3.65;100.00;94001.25;5051228;28;20209;-57
2023/01/11 02:59:12;;;;;;;2.83;1.83;;;;;;;3.60;100.00;94005.78;5050910;28;20193;-54
2023/01/11 03:01:46;;;;;;;3.33;2.17;;;;;;;3.63;100.00;93990.50;5050621;28;20251;-54
2023/01/11 03:04:28;;;;;;;3.10;2.20;;;;;;;3.77;100.00;94010.47;5049979;28;20576;-55
2023/01/11 03:07:18;;;;;;;2.33;2.10;;;;;;;3.75;100.00;94008.06;5051460;28;20191;-57
2023/01/11 03:10:11;;;;;;;3.20;2.73;;;;;;;3.57;100.00;93975.84;5050615;28;20267;-54
2023/01/11 03:13:27;;;;;;;3.13;2.20;;;;;;;3.63;100.00;93975.44;5050889;28;20245;-53
2023/01/11 03:16:07;;;;;;;3.67;2.60;;;;;;;3.48;100.00;93959.69;5017294;28;20707;-53
2023/01/11 03:18:51;;;;;;;4.87;2.80;;;;;;;3.61;100.00;93982.28;5049574;28;20189;-54
2023/01/11 03:21:31;;;;;;;4.03;2.90;;;;;;;3.48;100.00;93966.41;5050816;28;20263;-57
2023/01/11 03:23:59;;;;;;;3.60;2.67;;;;;;;3.52;100.00;93948.53;5032539;28;20284;-56
2023/01/11 03:27:07;;;;;;;3.50;2.43;;;;;;;3.55;100.00;93975.16;5050797;28;20195;-53
2023/01/11 03:29:41;;;;;;;4.50;2.90;;;;;;;3.30;100.00;93950.91;5050749;28;20237;-54
2023/01/11 03:32:20;;;;;;;3.47;2.87;;;;;;;3.11;100.00;93943.81;5050492;28;20185;-57
2023/01/11 03:35:23;;;;;;;4.30;2.80;;;;;;;3.03;100.00;93952.78;5050608;28;20224;-56
2023/01/11 03:38:00;;;;;;;6.43;2.80;;;;;;;3.21;100.00;93944.78;5050604;28;20269;-53
2023/01/11 03:40:52;;;;;;;3.87;2.77;;;;;;;3.16;100.00;93954.34;5050961;28;20222;-54
2023/01/11 03:43:20;;;;;;;3.40;3.00;;;;;;;3.34;100.00;93969.88;5043650;28;20598;-55
2023/01/11 03:46:13;;;;;;;3.67;2.63;;;;;;;3.57;100.00;93985.91;5050402;28;20222;-56
2023/01/11 03:48:45;;;;;;;3.47;2.67;;;;;;;3.62;100.00;93983.88;5032577;28;20202;-53
2023/01/11 03:51:13;;;;;;;4.27;3.03;;;;;;;3.79;100.00;93998.59;5050349;28;20212;-58
2023/01/11 03:53:42;;;;;;;4.13;2.80;;;;;;;3.70;100.00;93991.69;5050404;28;20255;-54
2023/01/11 03:56:11;;;;;;;3.20;2.70;;;;;;;3.60;100.00;93996.53;5050000;28;20220;-58
2023/01/11 03:58:36;;;;;;;4.30;2.90;;;;;;;3.68;100.00;93990.97;5050416;28;20174;-54
2023/01/11 04:01:02;;;;;;;3.33;2.77;;;;;;;3.69;100.00;94010.19;5050720;28;20221;-58
2023/01/11 04:03:28;;;;;;;4.07;2.57;;;;;;;3.11;100.00;93971.41;5052418;28;20210;-55
2023/01/11 04:05:58;;;;;;;4.13;3.37;;;;;;;3.00;100.00;93963.00;5053904;28;20312;-56
2023/01/11 04:08:24;;;;;;;4.27;3.00;;;;;;;2.94;100.00;93961.72;5053720;28;20181;-55
2023/01/11 04:10:49;;;;;;;5.20;3.87;;;;;;;2.91;100.00;93966.94;5053401;28;20647;-56
2023/01/11 04:13:15;;;;;;;4.97;3.47;;;;;;;2.85;100.00;93969.06;5053601;28;20323;-56
2023/01/11 04:15:40;;;;;;;8.40;4.90;;;;;;;2.81;100.00;93987.72;5053204;28;20213;-54
2023/01/11 04:18:06;;;;;;;7.50;5.07;;;;;;;3.06;100.00;93996.03;5053438;28;20243;-56
2023/01/11 04:20:33;;;;;;;8.53;5.67;;;;;;;3.18;100.00;93995.22;5053434;28;20214;-53
2023/01/11 04:22:59;;;;;;;9.27;6.80;;;;;;;3.13;100.00;94017.31;5053361;28;20189;-53
2023/01/11 04:25:24;;;;;;;9.10;6.20;;;;;;;3.45;100.00;94012.66;5053636;28;20702;-57
2023/01/11 04:27:49;;;;;;;9.23;6.20;;;;;;;3.45;100.00;94016.88;5035236;28;20184;-53
2023/01/11 04:30:15;;;;;;;6.93;5.13;;;;;;;3.10;100.00;94026.75;5053581;28;20204;-57
2023/01/11 04:32:40;;;;;;;7.33;5.30;;;;;;;3.36;100.00;94029.16;5053404;28;20665;-55
2023/01/11 04:35:06;;;;;;;7.17;4.97;;;;;;;3.32;100.00;94027.75;5052970;28;20293;-57
2023/01/11 04:37:32;;;;;;;8.33;5.10;;;;;;;3.40;100.00;94050.66;5053176;28;20186;-55
2023/01/11 04:39:57;;;;;;;7.27;4.87;;;;;;;3.39;100.00;94040.72;5052829;28;20762;-56
2023/01/11 04:42:23;;;;;;;8.47;5.37;;;;;;;3.32;100.00;94034.47;5035267;28;20182;-54
2023/01/11 04:44:50;;;;;;;11.37;6.07;;;;;;;5.67;100.00;94022.50;5052849;28;20755;-57
2023/01/11 04:47:17;;;;;;;12.97;9.07;;;;;;;4.67;100.00;94020.78;5052845;28;20688;-56
2023/01/11 04:49:43;;;;;;;9.10;5.47;;;;;;;3.87;100.00;94034.06;5052735;28;20207;-53
2023/01/11 04:52:11;;;;;;;25.27;14.53;;;;;;;4.12;100.00;94031.47;5052810;28;20195;-54
2023/01/11 04:54:37;;;;;;;5.83;4.57;;;;;;;3.83;100.00;94071.19;5052798;28;20700;-53
2023/01/11 04:57:02;;;;;;;7.57;5.07;;;;;;;3.94;100.00;94015.16;5052719;28;20220;-56
2023/01/11 04:59:28;;;;;;;7.00;4.83;;;;;;;3.81;100.00;94077.22;5052817;28;20239;-56
2023/01/11 05:01:54;;;;;;;7.10;4.67;;;;;;;3.83;100.00;94072.88;5052847;28;20220;-54
2023/01/11 05:04:19;;;;;;;5.90;3.87;;;;;;;3.78;100.00;94084.94;5034967;28;20240;-57
2023/01/11 05:06:45;;;;;;;5.30;3.97;;;;;;;3.65;100.00;94081.66;5052762;28;20268;-56
2023/01/11 05:09:15;;;;;;;4.37;3.47;;;;;;;3.55;100.00;94063.91;5052625;28;20719;-56
2023/01/11 05:11:40;;;;;;;5.83;3.50;;;;;;;3.55;100.00;94068.13;5052512;28;20190;-56
2023/01/11 05:14:06;;;;;;;5.00;3.60;;;;;;;3.62;100.00;94080.16;5051223;28;20592;-53
2023/01/11 05:16:32;;;;;;;5.23;3.50;;;;;;;3.77;100.00;94063.25;5052537;28;20238;-56
2023/01/11 05:19:00;;;;;;;6.03;3.97;;;;;;;3.72;100.00;94075.31;5052671;28;20190;-57
2023/01/11 05:21:27;;;;;;;6.17;3.40;;;;;;;3.67;100.00;94082.38;5052411;28;20196;-54
2023/01/11 05:23:53;;;;;;;3.77;3.07;;;;;;;3.63;100.00;94068.41;5052216;28;20247;-56
2023/01/11 05:26:26;;;;;;;11.70;6.87;;;;;;;3.61;100.00;94085.28;5052007;28;20705;-56
2023/01/11 05:28:51;;;;;;;4.67;2.97;;;;;;;3.55;100.00;94091.53;5052495;28;20193;-55
2023/01/11 05:31:17;;;;;;;6.50;3.60;;;;;;;3.72;100.00;94080.31;5052397;28;20631;-57
2023/01/11 05:33:43;;;;;;;8.07;4.90;;;;;;;3.86;100.00;94082.72;5052063;28;20194;-56
2023/01/11 05:36:15;;;;;;;2.80;2.50;;;;;;;3.57;100.00;94093.94;5052052;28;20768;-56
2023/01/11 05:38:40;;;;;;;3.30;2.50;;;;;;;3.58;100.00;94090.50;5052166;28;20252;-53
2023/01/11 05:41:09;;;;;;;2.67;2.20;;;;;;;3.51;100.00;94116.97;5052006;28;20252;-57
2023/01/11 05:46:20;;;;;;;6.00;2.40;;;;;;;3.26;100.00;94103.50;5052142;28;20248;-57
2023/01/11 05:48:46;;;;;;;2.60;2.00;;;;;;;3.32;100.00;94098.06;5051630;28;20769;-53
2023/01/11 05:51:11;;;;;;;4.00;2.73;;;;;;;3.22;100.00;94097.06;5050167;28;20660;-54
2023/01/11 05:53:37;;;;;;;3.50;2.40;;;;;;;3.23;100.00;94086.09;5031863;28;20200;-53
2023/01/11 05:56:03;;;;;;;3.90;2.63;;;;;;;3.32;100.00;94085.50;5049653;28;20220;-57
2023/01/11 05:58:28;;;;;;;2.33;1.83;;;;;;;3.39;100.00;94093.47;5049582;28;20208;-57
2023/01/11 06:00:55;;;;;;;15.23;9.27;;;;;;;3.71;100.00;94099.66;5050655;28;20266;-53
2023/01/11 06:03:23;;;;;;;4.20;2.90;;;;;;;3.87;100.00;94105.25;5051527;28;20186;-56
2023/01/11 06:05:48;;;;;;;4.10;2.57;;;;;;;3.80;100.00;94124.16;5033654;28;20213;-54
2023/01/11 06:08:14;;;;;;;4.63;2.90;;;;;;;4.02;100.00;94134.38;5051754;28;20229;-55
2023/01/11 06:10:40;;;;;;;3.23;2.20;;;;;;;4.00;100.00;94130.38;5051591;28;20225;-58
2023/01/11 06:15:50;;;;;;;2.80;2.30;;;;;;;3.94;100.00;94150.91;5051690;28;20705;-58
2023/01/11 06:18:16;;;;;;;3.07;2.53;;;;;;;3.97;100.00;94156.53;5058722;22;20705;-53
2023/01/11 06:20:41;;;;;;;3.00;2.53;;;;;;;4.15;100.00;94184.66;5051051;28;20237;-56
2023/01/11 06:23:07;;;;;;;8.37;5.37;;;;;;;6.32;100.00;94128.47;5051977;28;20190;-56
2023/01/11 06:25:36;;;;;;;6.97;4.80;;;;;;;6.40;100.00;94130.44;5033140;28;20209;-56
2023/01/11 06:28:03;;;;;;;3.03;2.37;;;;;;;5.77;100.00;94133.53;5051675;28;20219;-55
2023/01/11 06:30:29;;;;;;;3.73;2.67;;;;;;;5.60;100.00;94212.13;5051416;28;20209;-58
2023/01/11 06:32:55;;;;;;;4.20;2.30;;;;;;;5.25;100.00;94234.00;5051472;28;20226;-57
2023/01/11 06:35:20;;;;;;;3.80;2.70;;;;;;;5.09;100.00;94219.97;5051230;28;20252;-55
2023/01/11 06:37:46;;;;;;;5.03;2.67;;;;;;;5.34;100.00;94243.44;5051399;28;20235;-53
2023/01/11 06:40:12;;;;;;;3.00;2.43;;;;;;;5.39;100.00;94261.56;5051162;28;20209;-58
2023/01/11 06:42:37;;;;;;;3.43;2.40;;;;;;;5.10;100.00;94216.56;5051224;28;20196;-54
2023/01/11 06:45:03;;;;;;;2.63;2.40;;;;;;;5.11;100.00;94189.63;5051040;28;20283;-54
2023/01/11 06:47:29;;;;;;;7.43;1.97;;;;;;;5.19;100.00;94219.34;5051414;28;20279;-55
2023/01/11 06:49:54;;;;;;;3.10;2.40;;;;;;;5.15;100.00;94213.72;5051093;28;20244;-56
2023/01/11 06:52:20;;;;;;;3.47;2.20;;;;;;;5.42;100.00;94231.09;5051229;28;20556;-56
2023/01/11 06:54:45;;;;;;;5.10;3.23;;;;;;;5.43;100.00;94232.72;5050880;28;20217;-54
2023/01/11 06:57:11;;;;;;;7.93;5.17;;;;;;;5.59;100.00;94228.16;5051084;28;20301;-55
2023/01/11 06:59:38;;;;;;;8.23;5.70;;;;;;;5.66;100.00;94230.13;5050880;28;20218;-58
2023/01/11 07:02:04;;;;;;;9.50;4.90;;;;;;;5.56;100.00;94254.41;5050869;28;20340;-55
2023/01/11 07:04:30;;;;;;;6.67;5.10;;;;;;;5.46;100.00;94232.47;5050548;28;20212;-57
2023/01/11 07:06:55;;;;;;;6.43;5.10;;;;;;;5.27;100.00;94204.47;5051772;28;20207;-55
2023/01/11 07:09:20;;;;;;;7.70;5.13;;;;;;;5.16;100.00;94243.03;5050492;28;20212;-53
2023/01/11 07:11:46;;;;;;;6.70;4.40;;;;;;;4.99;100.00;94241.69;5050995;28;20299;-54
2023/01/11 07:14:13;;;;;;;6.30;4.13;;;;;;;5.00;100.00;94210.56;5050664;28;20211;-57
2023/01/11 07:16:40;;;;;;;9.20;5.07;;;;;;;5.12;100.00;94208.88;5050918;28;20201;-58
2023/01/11 07:19:05;;;;;;;6.93;4.60;;;;;;;5.26;100.00;94231.38;5050773;28;20273;-56
2023/01/11 07:21:31;;;;;;;8.73;5.00;;;;;;;5.49;100.00;94270.88;5050801;28;20207;-58
2023/01/11 07:23:56;;;;;;;11.37;5.13;;;;;;;5.44;100.00;94282.19;5050512;28;20242;-56
2023/01/11 07:26:22;;;;;;;7.73;4.80;;;;;;;5.40;100.00;94261.44;5050656;28;20661;-55
2023/01/11 07:28:47;;;;;;;6.17;4.10;;;;;;;5.27;100.00;94243.09;5050752;28;20200;-58
2023/01/11 07:31:12;;;;;;;6.10;4.20;;;;;;;5.36;100.00;94244.13;5050397;28;20269;-57
2023/01/11 07:33:38;;;;;;;3.83;3.03;;;;;;;5.47;100.00;94284.50;5050640;28;20203;-55
2023/01/11 07:36:05;;;;;;;4.47;3.17;;;;;;;5.55;100.00;94337.69;5050401;28;20217;-58
2023/01/11 09:32:28;;;;;;;4.57;1.97;;;;;;;4.96;100.00;94461.00;5148484;27;20438;-56
2023/01/11 09:34:56;;;;;;;3.50;2.10;;;;;;;4.77;100.00;94442.97;5120369;28;20207;-53
2023/01/11 09:37:23;;;;;;;2.37;1.90;;;;;;;4.88;100.00;94443.06;5108132;28;20205;-55
2023/01/11 09:39:50;;;;;;;3.27;1.80;;;;;;;4.87;100.00;94451.53;5108131;28;20209;-56
2023/01/11 09:42:36;;;;;;;1.93;1.80;;;;;;;5.03;100.00;94441.22;5107871;28;20706;-58
2023/01/11 09:45:13;;;;;;;3.37;2.37;;;;;;;5.41;100.00;94442.00;5107862;28;20206;-56
2023/01/11 09:48:10;;;;;;;2.87;2.20;;;;;;;5.42;100.00;94463.75;5108020;28;20187;-55
2023/01/11 09:56:36;;;;;;;1.60;1.50;;;;;;;5.05;100.00;94447.78;5128386;27;20386;-54
2023/01/11 10:01:39;;;;;;;6.90;2.50;;;;;;;5.18;100.00;94454.53;5115014;22;20279;-55
2023/01/11 10:04:57;;;;;;;5.10;2.20;;;;;;;5.50;100.00;94448.94;5108401;28;20286;-56
2023/01/11 10:07:58;;;;;;;2.37;2.03;;;;;;;5.49;100.00;94461.63;5082638;28;20191;-53
2023/01/11 10:10:53;;;;;;;3.20;2.17;;;;;;;5.63;100.00;94469.06;5108758;28;20214;-53
2023/01/11 10:13:53;;;;;;;2.50;2.13;;;;;;;5.46;100.00;94479.47;5108469;28;20233;-57
2023/01/11 10:16:50;;;;;;;4.03;1.83;;;;;;;5.18;100.00;94494.84;5082601;28;20226;-56
2023/01/11 10:19:30;;;;;;;2.80;2.00;;;;;;;5.30;100.00;94483.94;5108051;28;20226;-55
2023/01/11 10:22:05;;;;;;;3.63;1.90;;;;;;;5.39;100.00;94543.81;5106181;28;20183;-56
2023/01/11 10:24:39;;;;;;;2.83;1.50;;;;;;;5.36;100.00;94559.13;5107889;28;20243;-53
2023/01/11 10:27:14;;;;;;;1.50;1.40;;;;;;;5.24;100.00;94563.28;5107308;28;20244;-54
2023/01/11 10:33:02;;;;;;;2.40;1.67;;;;;;;5.71;100.00;94545.81;5107986;28;20388;-54
2023/01/11 10:38:37;;;;;;;2.13;1.80;;;;;;;6.19;100.00;94579.53;5107641;28;20191;-57
2023/01/11 10:41:20;;;;;;;3.77;1.70;;;;;;;6.51;100.00;94621.00;5106655;28;20222;-58
2023/01/11 10:43:53;;;;;;;1.43;1.33;;;;;;;6.60;100.00;94635.53;5107731;28;20607;-55
2023/01/11 10:46:22;;;;;;;2.60;1.30;;;;;;;6.55;100.00;94593.81;5107604;28;20731;-54
2023/01/11 10:48:56;;;;;;;1.20;1.10;;;;;;;6.34;100.00;94638.25;5107586;28;20179;-56
2023/01/11 10:51:44;;;;;;;1.37;1.27;;;;;;;5.98;100.00;94616.28;5107575;28;20184;-57
2023/01/11 10:54:16;;;;;;;3.03;1.60;;;;;;;5.75;100.00;94611.97;5107448;28;20215;-55
2023/01/11 10:57:07;;;;;;;2.00;1.60;;;;;;;5.61;100.00;94582.63;5107716;28;20543;-57
2023/01/11 11:00:01;;;;;;;4.80;3.03;;;;;;;5.72;100.00;94571.81;5107660;28;20230;-55
2023/01/11 11:02:54;;;;;;;3.63;2.23;;;;;;;5.91;100.00;94531.88;5107361;28;20274;-57
2023/01/11 11:05:40;;;;;;;6.03;2.03;;;;;;;6.42;100.00;94553.47;5107114;28;20218;-57
2023/01/11 11:08:08;;;;;;;2.57;1.80;;;;;;;6.83;100.00;94617.97;5093601;28;20198;-56
2023/01/11 11:11:01;;;;;;;4.73;2.30;;;;;;;7.54;100.00;94638.84;5091850;28;20773;-54
2023/01/11 11:13:39;;;;;;;1.87;1.70;;;;;;;8.38;100.00;94710.97;5093206;28;20208;-59
2023/01/11 11:16:42;;;;;;;1.43;1.27;;;;;;;8.37;99.45;94795.50;5093705;28;20215;-57
2023/01/11 11:19:13;;;;;;;2.43;1.03;;;;;;;8.08;98.18;94775.75;5083778;28;20261;-55
2023/01/11 11:21:41;;;;;;;3.63;1.20;;;;;;;8.14;90.85;94719.59;5093517;28;20717;-57
2023/01/11 11:24:20;;;;;;;1.50;1.40;;;;;;;8.20;88.95;94681.94;5092056;28;20223;-54
2023/01/11 11:26:55;;;;;;;4.63;1.50;;;;;;;8.07;86.59;94705.75;5093235;28;20276;-54
2023/01/11 11:29:22;;;;;;;1.87;1.27;;;;;;;7.63;88.44;94666.81;5093481;28;20757;-57
2023/01/11 11:31:49;;;;;;;4.27;1.73;;;;;;;7.40;88.20;94647.44;5093205;28;20342;-54
2023/01/11 11:34:18;;;;;;;1.70;1.60;;;;;;;7.20;92.94;94573.97;5093342;28;20222;-54
2023/01/11 11:36:46;;;;;;;2.40;2.20;;;;;;;7.25;93.65;94562.59;5093283;28;20188;-55
2023/01/11 11:39:29;;;;;;;2.00;1.73;;;;;;;7.06;93.91;94557.28;5092965;28;20229;-54
2023/01/11 11:42:07;;;;;;;1.90;1.80;;;;;;;6.66;91.24;94587.13;5093029;28;20234;-59
2023/01/11 11:44:32;;;;;;;4.50;1.57;;;;;;;6.83;94.35;94548.00;5093261;28;20552;-55
2023/01/11 11:47:12;;;;;;;1.83;1.60;;;;;;;6.77;93.52;94556.84;5093020;28;20233;-53
2023/01/11 11:49:38;;;;;;;1.70;1.60;;;;;;;6.89;95.25;94546.78;5091852;28;20356;-56
2023/01/11 11:52:06;;;;;;;3.03;2.13;;;;;;;6.87;98.19;94493.81;5093196;28;20251;-56
2023/01/11 11:54:55;;;;;;;2.20;2.00;;;;;;;6.93;96.02;94522.91;5093064;28;20302;-58
2023/01/11 11:57:25;;;;;;;2.27;1.93;;;;;;;6.80;91.84;94578.56;5093032;28;20180;-58
2023/01/11 12:00:02;;;;;;;3.83;1.77;;;;;;;6.65;93.70;94529.94;5093555;28;20215;-57
2023/01/11 12:02:32;;;;;;;2.07;1.83;;;;;;;6.70;91.46;94565.78;5092811;28;20220;-53
2023/01/11 12:05:03;;;;;;;1.90;1.80;;;;;;;6.84;91.36;94584.19;5092992;28;20211;-55
2023/01/11 12:07:41;;;;;;;3.10;2.13;;;;;;;6.89;93.59;94550.09;5092772;28;20188;-56
2023/01/11 12:10:15;;;;;;;2.50;1.80;;;;;;;6.67;95.21;94497.78;5092869;28;20204;-54
2023/01/11 12:12:48;;;;;;;2.33;2.10;;;;;;;6.65;93.63;94537.50;5092578;28;20191;-57
2023/01/11 12:15:13;;;;;;;3.23;2.10;;;;;;;6.64;94.47;94525.81;5092691;28;20239;-58
2023/01/11 12:17:39;;;;;;;3.03;2.60;;;;;;;6.59;92.90;94550.56;5091407;28;20184;-57
2023/01/11 12:20:20;;;;;;;6.40;2.33;;;;;;;6.56;93.21;94547.47;5092452;28;20289;-56
2023/01/11 12:22:45;;;;;;;4.87;3.00;;;;;;;6.32;95.71;94502.00;5092580;28;20672;-57
2023/01/11 12:25:13;;;;;;;2.53;2.30;;;;;;;6.11;96.73;94474.97;5092692;28;20223;-53
2023/01/11 12:28:06;;;;;;;7.00;1.93;;;;;;;6.05;91.38;94559.47;5092390;28;20752;-55
2023/01/11 12:30:44;;;;;;;1.53;1.30;;;;;;;5.75;86.69;94638.00;5092808;28;20246;-54
2023/01/11 12:33:43;;;;;;;1.80;1.70;;;;;;;5.68;86.59;94629.22;5092594;28;20228;-57
2023/01/11 12:36:35;;;;;;;2.27;1.90;;;;;;;5.64;87.72;94610.16;5092435;28;20242;-57
2023/01/11 12:39:20;;;;;;;2.83;1.70;;;;;;;5.67;87.98;94599.06;5092317;28;20267;-54
2023/01/11 12:42:12;;;;;;;2.77;2.00;;;;;;;5.74;88.50;94600.25;5092467;28;20213;-57
2023/01/11 12:44:40;;;;;;;3.80;1.93;;;;;;;5.61;89.39;94586.88;5092430;28;20227;-55
2023/01/11 12:47:24;;;;;;;2.30;1.90;;;;;;;5.59;89.13;94596.25;5090749;28;20274;-55
2023/01/11 12:50:11;;;;;;;2.37;1.77;;;;;;;5.51;92.81;94532.94;5092029;28;20215;-55
2023/01/11 12:53:01;;;;;;;2.47;2.07;;;;;;;5.52;93.98;94501.75;5092082;28;20198;-58
2023/01/11 12:55:51;;;;;;;3.53;2.40;;;;;;;5.71;92.59;94545.81;5092162;28;20222;-58
2023/01/11 12:58:27;;;;;;;3.47;2.37;;;;;;;5.70;93.78;94536.63;5092102;28;20246;-56
2023/01/11 13:01:14;;;;;;;3.53;2.27;;;;;;;5.70;97.66;94477.81;5090729;28;20289;-57
2023/01/11 13:03:42;;;;;;;4.13;2.93;;;;;;;5.84;97.74;94496.16;5091968;28;20604;-57
2023/01/11 13:06:31;;;;;;;5.67;2.77;;;;;;;5.87;99.06;94473.25;5091755;28;20579;-55
2023/01/11 13:09:11;;;;;;;2.70;2.40;;;;;;;5.84;97.66;94485.25;5062799;28;20207;-57
2023/01/11 13:12:06;;;;;;;3.60;1.80;;;;;;;5.74;95.10;94540.53;5091951;28;20192;-58
2023/01/11 13:14:38;;;;;;;2.33;2.10;;;;;;;5.75;94.75;94537.13;5091742;28;20296;-58
2023/01/11 13:17:03;;;;;;;5.97;2.90;;;;;;;5.61;96.45;94522.13;5091746;28;20207;-57
2023/01/11 13:19:40;;;;;;;5.70;3.00;;;;;;;5.60;99.40;94471.78;5091562;28;20226;-57
2023/01/11 13:22:15;;;;;;;2.53;2.33;;;;;;;5.53;100.00;94463.03;5090426;28;20179;-54
2023/01/11 13:24:44;;;;;;;4.70;2.43;;;;;;;5.66;99.41;94474.69;5091276;28;20218;-59
2023/01/11 13:27:15;;;;;;;4.90;2.97;;;;;;;5.72;99.85;94471.75;5091622;28;20558;-55
2023/01/11 13:29:44;;;;;;;2.97;2.37;;;;;;;5.93;97.76;94500.59;5091563;28;20669;-57
2023/01/11 13:32:20;;;;;;;5.30;2.87;;;;;;;5.89;99.33;94468.09;5091583;28;20278;-57
2023/01/11 13:35:01;;;;;;;4.77;3.23;;;;;;;5.88;100.00;94466.47;5091388;28;20304;-55
2023/01/11 13:37:40;;;;;;;3.23;2.93;;;;;;;5.71;100.00;94446.66;5091539;28;20561;-55
2023/01/11 13:40:16;;;;;;;6.13;3.10;;;;;;;5.67;100.00;94438.50;5091543;28;20219;-58
2023/01/11 13:42:53;;;;;;;5.97;3.00;;;;;;;5.70;100.00;94442.50;5091577;28;20269;-56
2023/01/11 13:45:29;;;;;;;6.00;3.00;;;;;;;5.51;100.00;94435.44;5089959;28;20210;-56
2023/01/11 13:48:00;;;;;;;4.10;3.37;;;;;;;5.41;100.00;94405.91;5091634;28;20652;-56
2023/01/11 13:50:40;;;;;;;5.00;3.20;;;;;;;5.34;100.00;94433.25;5089921;28;20579;-55
2023/01/11 13:53:35;;;;;;;3.30;2.60;;;;;;;5.44;99.14;94472.03;5091143;28;20194;-58
2023/01/11 13:56:11;;;;;;;2.87;1.93;;;;;;;5.31;97.55;94498.97;5091366;28;20300;-57
2023/01/11 13:58:58;;;;;;;5.67;2.40;;;;;;;5.29;97.30;94492.41;5090947;28;20194;-54
2023/01/11 14:01:45;;;;;;;5.53;2.27;;;;;;;5.33;97.68;94503.91;5091128;28;20625;-56
2023/01/11 14:04:17;;;;;;;5.10;3.10;;;;;;;5.28;97.15;94495.84;5091041;28;20184;-55
2023/01/11 14:07:01;;;;;;;4.47;3.13;;;;;;;5.45;95.80;94538.38;5090965;28;20219;-55
2023/01/11 14:09:52;;;;;;;3.30;3.00;;;;;;;5.47;96.11;94526.47;5091295;28;20750;-55
2023/01/11 14:12:42;;;;;;;5.33;3.03;;;;;;;5.29;98.71;94490.72;5059700;28;20207;-54
2023/01/11 14:15:22;;;;;;;6.80;3.93;;;;;;;5.24;99.28;94476.78;5090896;28;20219;-54
2023/01/11 14:17:56;;;;;;;5.00;3.13;;;;;;;5.28;100.00;94450.47;5090950;28;20199;-54
2023/01/11 14:20:33;;;;;;;4.70;3.20;;;;;;;5.28;100.00;94436.16;5091085;28;20204;-54
2023/01/11 14:23:17;;;;;;;5.47;3.20;;;;;;;5.13;100.00;94443.03;5090956;28;20166;-53
2023/01/11 14:25:55;;;;;;;5.70;3.83;;;;;;;5.16;100.00;94441.22;5091008;28;20207;-58
2023/01/11 14:28:35;;;;;;;4.43;3.50;;;;;;;5.13;100.00;94426.34;5091012;28;20181;-58
2023/01/11 14:31:28;;;;;;;5.10;3.67;;;;;;;5.13;100.00;94441.44;5089430;28;20258;-58
2023/01/11 14:34:27;;;;;;;6.20;4.00;;;;;;;4.99;100.00;94422.19;5090956;28;20665;-58